sensor_id;sensor_type;location;lat;lon;timestamp;P1;durP1;ratioP1;P2;durP2;ratioP2
39502;SDS011;26970;49.900;10.774;2023-04-25T00:02:00;7.38;;;5.53;;
39502;SDS011;26970;49.900;10.774;2023-04-25T00:04:26;7.07;;;5.10;;
39502;SDS011;26970;49.900;10.774;2023-04-25T00:06:53;8.60;;;5.10;;
39502;SDS011;26970;49.900;10.774;2023-04-25T00:09:19;8.18;;;5.22;;
39502;SDS011;26970;49.900;10.774;2023-04-25T00:11:44;7.03;;;5.30;;
39502;SDS011;26970;49.900;10.774;2023-04-25T00:14:10;5.85;;;4.65;;
39502;SDS011;26970;49.900;10.774;2023-04-25T00:16:36;8.07;;;5.68;;
39502;SDS011;26970;49.900;10.774;2023-04-25T00:19:01;8.63;;;5.20;;
39502;SDS011;26970;49.900;10.774;2023-04-25T00:21:28;7.90;;;5.03;;
39502;SDS011;26970;49.900;10.774;2023-04-25T00:23:54;7.43;;;4.90;;
39502;SDS011;26970;49.900;10.774;2023-04-25T00:26:20;8.10;;;4.93;;
39502;SDS011;26970;49.900;10.774;2023-04-25T00:28:46;7.40;;;4.85;;
39502;SDS011;26970;49.900;10.774;2023-04-25T00:31:12;7.55;;;4.88;;
39502;SDS011;26970;49.900;10.774;2023-04-25T00:33:38;6.72;;;4.78;;
39502;SDS011;26970;49.900;10.774;2023-04-25T00:36:04;8.57;;;5.60;;
39502;SDS011;26970;49.900;10.774;2023-04-25T00:38:30;7.18;;;4.93;;
39502;SDS011;26970;49.900;10.774;2023-04-25T00:40:56;8.18;;;5.15;;
39502;SDS011;26970;49.900;10.774;2023-04-25T00:43:22;7.07;;;5.18;;
39502;SDS011;26970;49.900;10.774;2023-04-25T00:45:52;7.50;;;4.90;;
39502;SDS011;26970;49.900;10.774;2023-04-25T00:48:18;6.88;;;4.53;;
39502;SDS011;26970;49.900;10.774;2023-04-25T00:50:48;8.27;;;5.47;;
39502;SDS011;26970;49.900;10.774;2023-04-25T00:53:17;8.35;;;5.15;;
39502;SDS011;26970;49.900;10.774;2023-04-25T00:55:44;7.63;;;5.40;;
39502;SDS011;26970;49.900;10.774;2023-04-25T00:58:10;7.57;;;4.93;;
39502;SDS011;26970;49.900;10.774;2023-04-25T01:00:36;7.22;;;4.95;;
39502;SDS011;26970;49.900;10.774;2023-04-25T01:03:02;5.88;;;4.47;;
39502;SDS011;26970;49.900;10.774;2023-04-25T01:05:28;9.10;;;5.28;;
39502;SDS011;26970;49.900;10.774;2023-04-25T01:07:54;7.13;;;5.32;;
39502;SDS011;26970;49.900;10.774;2023-04-25T01:10:20;7.10;;;4.95;;
39502;SDS011;26970;49.900;10.774;2023-04-25T01:12:46;8.35;;;4.60;;
39502;SDS011;26970;49.900;10.774;2023-04-25T01:15:12;9.00;;;5.65;;
39502;SDS011;26970;49.900;10.774;2023-04-25T01:17:37;9.15;;;5.55;;
39502;SDS011;26970;49.900;10.774;2023-04-25T01:20:05;8.82;;;5.28;;
39502;SDS011;26970;49.900;10.774;2023-04-25T01:22:32;7.35;;;5.10;;
39502;SDS011;26970;49.900;10.774;2023-04-25T01:24:58;8.57;;;5.50;;
39502;SDS011;26970;49.900;10.774;2023-04-25T01:27:25;6.55;;;5.05;;
39502;SDS011;26970;49.900;10.774;2023-04-25T01:29:50;7.90;;;5.35;;
39502;SDS011;26970;49.900;10.774;2023-04-25T01:32:16;7.90;;;5.75;;
39502;SDS011;26970;49.900;10.774;2023-04-25T01:34:43;8.85;;;5.30;;
39502;SDS011;26970;49.900;10.774;2023-04-25T01:37:08;9.48;;;5.80;;
39502;SDS011;26970;49.900;10.774;2023-04-25T01:39:34;9.13;;;5.68;;
39502;SDS011;26970;49.900;10.774;2023-04-25T01:42:00;7.75;;;5.13;;
39502;SDS011;26970;49.900;10.774;2023-04-25T01:44:26;8.50;;;6.13;;
39502;SDS011;26970;49.900;10.774;2023-04-25T01:46:52;8.63;;;6.28;;
39502;SDS011;26970;49.900;10.774;2023-04-25T01:49:18;9.20;;;6.00;;
39502;SDS011;26970;49.900;10.774;2023-04-25T01:51:44;9.52;;;5.35;;
39502;SDS011;26970;49.900;10.774;2023-04-25T01:54:09;8.68;;;5.70;;
39502;SDS011;26970;49.900;10.774;2023-04-25T01:56:36;8.57;;;6.25;;
39502;SDS011;26970;49.900;10.774;2023-04-25T01:59:03;9.02;;;6.35;;
39502;SDS011;26970;49.900;10.774;2023-04-25T02:01:29;10.27;;;6.03;;
39502;SDS011;26970;49.900;10.774;2023-04-25T02:03:55;9.98;;;6.50;;
39502;SDS011;26970;49.900;10.774;2023-04-25T02:06:20;9.57;;;5.93;;
39502;SDS011;26970;49.900;10.774;2023-04-25T02:08:46;12.75;;;7.32;;
39502;SDS011;26970;49.900;10.774;2023-04-25T02:11:12;10.43;;;6.03;;
39502;SDS011;26970;49.900;10.774;2023-04-25T02:13:38;7.90;;;5.57;;
39502;SDS011;26970;49.900;10.774;2023-04-25T02:16:03;10.23;;;6.28;;
39502;SDS011;26970;49.900;10.774;2023-04-25T02:18:29;10.25;;;6.85;;
39502;SDS011;26970;49.900;10.774;2023-04-25T02:20:56;8.60;;;6.00;;
39502;SDS011;26970;49.900;10.774;2023-04-25T02:23:22;16.23;;;6.43;;
39502;SDS011;26970;49.900;10.774;2023-04-25T02:25:48;9.35;;;7.07;;
39502;SDS011;26970;49.900;10.774;2023-04-25T02:28:14;9.98;;;7.00;;
39502;SDS011;26970;49.900;10.774;2023-04-25T02:30:40;9.93;;;6.25;;
39502;SDS011;26970;49.900;10.774;2023-04-25T02:33:05;10.55;;;7.63;;
39502;SDS011;26970;49.900;10.774;2023-04-25T02:35:31;9.57;;;6.63;;
39502;SDS011;26970;49.900;10.774;2023-04-25T02:37:57;9.52;;;6.63;;
39502;SDS011;26970;49.900;10.774;2023-04-25T02:40:22;9.05;;;6.78;;
39502;SDS011;26970;49.900;10.774;2023-04-25T02:42:48;9.95;;;6.50;;
39502;SDS011;26970;49.900;10.774;2023-04-25T02:45:13;10.27;;;7.28;;
39502;SDS011;26970;49.900;10.774;2023-04-25T02:47:39;11.35;;;7.40;;
39502;SDS011;26970;49.900;10.774;2023-04-25T02:50:05;10.65;;;7.68;;
39502;SDS011;26970;49.900;10.774;2023-04-25T02:52:31;10.32;;;7.35;;
39502;SDS011;26970;49.900;10.774;2023-04-25T02:54:56;12.60;;;7.95;;
39502;SDS011;26970;49.900;10.774;2023-04-25T02:57:22;11.88;;;8.25;;
39502;SDS011;26970;49.900;10.774;2023-04-25T02:59:47;12.48;;;7.97;;
39502;SDS011;26970;49.900;10.774;2023-04-25T03:02:13;13.23;;;7.95;;
39502;SDS011;26970;49.900;10.774;2023-04-25T03:04:39;10.70;;;7.68;;
39502;SDS011;26970;49.900;10.774;2023-04-25T03:07:04;11.80;;;7.50;;
39502;SDS011;26970;49.900;10.774;2023-04-25T03:09:30;11.13;;;6.57;;
39502;SDS011;26970;49.900;10.774;2023-04-25T03:11:56;10.45;;;6.75;;
39502;SDS011;26970;49.900;10.774;2023-04-25T03:14:21;11.65;;;7.28;;
39502;SDS011;26970;49.900;10.774;2023-04-25T03:16:47;9.98;;;6.95;;
39502;SDS011;26970;49.900;10.774;2023-04-25T03:19:12;10.20;;;6.80;;
39502;SDS011;26970;49.900;10.774;2023-04-25T03:21:40;8.70;;;6.13;;
39502;SDS011;26970;49.900;10.774;2023-04-25T03:24:06;13.68;;;6.78;;
39502;SDS011;26970;49.900;10.774;2023-04-25T03:26:32;10.35;;;7.28;;
39502;SDS011;26970;49.900;10.774;2023-04-25T03:28:58;10.60;;;6.53;;
39502;SDS011;26970;49.900;10.774;2023-04-25T03:31:23;11.30;;;7.00;;
39502;SDS011;26970;49.900;10.774;2023-04-25T03:33:49;10.35;;;6.40;;
39502;SDS011;26970;49.900;10.774;2023-04-25T03:36:14;7.70;;;5.50;;
39502;SDS011;26970;49.900;10.774;2023-04-25T03:38:40;8.68;;;6.03;;
39502;SDS011;26970;49.900;10.774;2023-04-25T03:41:06;8.98;;;5.40;;
39502;SDS011;26970;49.900;10.774;2023-04-25T03:43:32;9.57;;;5.97;;
39502;SDS011;26970;49.900;10.774;2023-04-25T03:45:58;9.90;;;6.15;;
39502;SDS011;26970;49.900;10.774;2023-04-25T03:48:24;10.65;;;6.80;;
39502;SDS011;26970;49.900;10.774;2023-04-25T03:50:51;9.50;;;6.32;;
39502;SDS011;26970;49.900;10.774;2023-04-25T03:53:17;9.57;;;6.75;;
39502;SDS011;26970;49.900;10.774;2023-04-25T03:55:43;9.38;;;6.45;;
39502;SDS011;26970;49.900;10.774;2023-04-25T03:58:08;11.38;;;5.95;;
39502;SDS011;26970;49.900;10.774;2023-04-25T04:00:34;10.00;;;6.60;;
39502;SDS011;26970;49.900;10.774;2023-04-25T04:03:00;9.35;;;6.50;;
39502;SDS011;26970;49.900;10.774;2023-04-25T04:05:26;10.30;;;6.40;;
39502;SDS011;26970;49.900;10.774;2023-04-25T04:07:52;12.32;;;7.35;;
39502;SDS011;26970;49.900;10.774;2023-04-25T04:10:18;10.35;;;6.60;;
39502;SDS011;26970;49.900;10.774;2023-04-25T04:12:43;9.93;;;6.50;;
39502;SDS011;26970;49.900;10.774;2023-04-25T04:15:09;9.05;;;6.60;;
39502;SDS011;26970;49.900;10.774;2023-04-25T04:17:35;8.18;;;5.18;;
39502;SDS011;26970;49.900;10.774;2023-04-25T04:20:01;6.93;;;4.72;;
39502;SDS011;26970;49.900;10.774;2023-04-25T04:22:28;7.70;;;5.50;;
39502;SDS011;26970;49.900;10.774;2023-04-25T04:24:54;8.00;;;4.82;;
39502;SDS011;26970;49.900;10.774;2023-04-25T04:27:21;6.80;;;4.78;;
39502;SDS011;26970;49.900;10.774;2023-04-25T04:29:47;7.90;;;5.07;;
39502;SDS011;26970;49.900;10.774;2023-04-25T04:32:14;6.88;;;4.88;;
39502;SDS011;26970;49.900;10.774;2023-04-25T04:34:40;9.35;;;5.15;;
39502;SDS011;26970;49.900;10.774;2023-04-25T04:37:06;8.68;;;5.95;;
39502;SDS011;26970;49.900;10.774;2023-04-25T04:39:32;7.93;;;5.35;;
39502;SDS011;26970;49.900;10.774;2023-04-25T04:41:59;8.07;;;5.35;;
39502;SDS011;26970;49.900;10.774;2023-04-25T04:44:26;7.88;;;5.72;;
39502;SDS011;26970;49.900;10.774;2023-04-25T04:46:53;8.60;;;5.75;;
39502;SDS011;26970;49.900;10.774;2023-04-25T04:49:19;8.18;;;5.18;;
39502;SDS011;26970;49.900;10.774;2023-04-25T04:51:45;8.00;;;5.63;;
39502;SDS011;26970;49.900;10.774;2023-04-25T04:54:10;8.23;;;5.57;;
39502;SDS011;26970;49.900;10.774;2023-04-25T04:56:36;9.23;;;6.28;;
39502;SDS011;26970;49.900;10.774;2023-04-25T04:59:01;10.38;;;5.82;;
39502;SDS011;26970;49.900;10.774;2023-04-25T05:01:27;10.38;;;6.40;;
39502;SDS011;26970;49.900;10.774;2023-04-25T05:03:54;8.32;;;6.18;;
39502;SDS011;26970;49.900;10.774;2023-04-25T05:06:25;9.02;;;6.68;;
39502;SDS011;26970;49.900;10.774;2023-04-25T05:08:51;10.77;;;6.60;;
39502;SDS011;26970;49.900;10.774;2023-04-25T05:11:17;9.98;;;6.30;;
39502;SDS011;26970;49.900;10.774;2023-04-25T05:13:43;10.95;;;6.60;;
39502;SDS011;26970;49.900;10.774;2023-04-25T05:16:09;9.32;;;6.70;;
39502;SDS011;26970;49.900;10.774;2023-04-25T05:18:34;9.93;;;7.18;;
39502;SDS011;26970;49.900;10.774;2023-04-25T05:21:01;10.02;;;7.15;;
39502;SDS011;26970;49.900;10.774;2023-04-25T05:23:26;9.52;;;7.15;;
39502;SDS011;26970;49.900;10.774;2023-04-25T05:25:53;10.32;;;7.07;;
39502;SDS011;26970;49.900;10.774;2023-04-25T05:28:18;11.20;;;7.85;;
39502;SDS011;26970;49.900;10.774;2023-04-25T05:30:45;12.63;;;8.73;;
39502;SDS011;26970;49.900;10.774;2023-04-25T05:33:11;10.20;;;7.30;;
39502;SDS011;26970;49.900;10.774;2023-04-25T05:35:36;11.10;;;7.90;;
39502;SDS011;26970;49.900;10.774;2023-04-25T05:38:02;11.70;;;8.27;;
39502;SDS011;26970;49.900;10.774;2023-04-25T05:40:27;13.27;;;8.20;;
39502;SDS011;26970;49.900;10.774;2023-04-25T05:42:53;10.18;;;7.55;;
39502;SDS011;26970;49.900;10.774;2023-04-25T05:45:18;14.00;;;9.00;;
39502;SDS011;26970;49.900;10.774;2023-04-25T05:47:44;13.45;;;8.52;;
39502;SDS011;26970;49.900;10.774;2023-04-25T05:50:10;12.18;;;9.23;;
39502;SDS011;26970;49.900;10.774;2023-04-25T05:52:35;13.15;;;9.27;;
39502;SDS011;26970;49.900;10.774;2023-04-25T05:55:01;13.25;;;9.38;;
39502;SDS011;26970;49.900;10.774;2023-04-25T05:57:26;15.38;;;11.30;;
39502;SDS011;26970;49.900;10.774;2023-04-25T05:59:52;14.80;;;10.95;;
39502;SDS011;26970;49.900;10.774;2023-04-25T06:02:19;14.63;;;11.20;;
39502;SDS011;26970;49.900;10.774;2023-04-25T06:04:46;15.32;;;10.82;;
39502;SDS011;26970;49.900;10.774;2023-04-25T06:07:13;16.23;;;10.98;;
39502;SDS011;26970;49.900;10.774;2023-04-25T06:09:38;16.63;;;11.77;;
39502;SDS011;26970;49.900;10.774;2023-04-25T06:12:05;16.73;;;11.85;;
39502;SDS011;26970;49.900;10.774;2023-04-25T06:14:31;15.65;;;11.40;;
39502;SDS011;26970;49.900;10.774;2023-04-25T06:16:57;18.55;;;11.95;;
39502;SDS011;26970;49.900;10.774;2023-04-25T06:19:22;16.85;;;12.27;;
39502;SDS011;26970;49.900;10.774;2023-04-25T06:21:48;17.35;;;11.98;;
39502;SDS011;26970;49.900;10.774;2023-04-25T06:24:13;16.10;;;11.80;;
39502;SDS011;26970;49.900;10.774;2023-04-25T06:26:39;14.93;;;10.52;;
39502;SDS011;26970;49.900;10.774;2023-04-25T06:29:04;16.52;;;11.82;;
39502;SDS011;26970;49.900;10.774;2023-04-25T06:31:30;16.20;;;11.30;;
39502;SDS011;26970;49.900;10.774;2023-04-25T06:33:58;16.05;;;11.85;;
39502;SDS011;26970;49.900;10.774;2023-04-25T06:36:23;16.73;;;11.10;;
39502;SDS011;26970;49.900;10.774;2023-04-25T06:38:52;16.90;;;12.15;;
39502;SDS011;26970;49.900;10.774;2023-04-25T06:41:18;16.05;;;12.13;;
39502;SDS011;26970;49.900;10.774;2023-04-25T06:43:43;14.93;;;11.40;;
39502;SDS011;26970;49.900;10.774;2023-04-25T06:46:09;15.48;;;11.15;;
39502;SDS011;26970;49.900;10.774;2023-04-25T06:48:35;16.73;;;12.25;;
39502;SDS011;26970;49.900;10.774;2023-04-25T06:51:01;13.85;;;9.40;;
39502;SDS011;26970;49.900;10.774;2023-04-25T06:53:26;13.57;;;9.95;;
39502;SDS011;26970;49.900;10.774;2023-04-25T06:55:52;20.50;;;9.50;;
39502;SDS011;26970;49.900;10.774;2023-04-25T06:58:17;14.10;;;8.73;;
39502;SDS011;26970;49.900;10.774;2023-04-25T07:00:43;12.75;;;8.43;;
39502;SDS011;26970;49.900;10.774;2023-04-25T07:03:09;12.05;;;8.50;;
39502;SDS011;26970;49.900;10.774;2023-04-25T07:05:34;14.20;;;9.23;;
39502;SDS011;26970;49.900;10.774;2023-04-25T07:08:00;11.77;;;7.75;;
39502;SDS011;26970;49.900;10.774;2023-04-25T07:10:26;10.90;;;6.70;;
39502;SDS011;26970;49.900;10.774;2023-04-25T07:12:51;14.25;;;7.88;;
39502;SDS011;26970;49.900;10.774;2023-04-25T07:15:17;12.60;;;7.40;;
39502;SDS011;26970;49.900;10.774;2023-04-25T07:17:43;13.05;;;7.30;;
39502;SDS011;26970;49.900;10.774;2023-04-25T07:20:09;12.60;;;7.95;;
39502;SDS011;26970;49.900;10.774;2023-04-25T07:22:35;8.95;;;6.18;;
39502;SDS011;26970;49.900;10.774;2023-04-25T07:25:00;9.85;;;6.85;;
39502;SDS011;26970;49.900;10.774;2023-04-25T07:27:26;9.57;;;5.78;;
39502;SDS011;26970;49.900;10.774;2023-04-25T07:29:52;8.27;;;5.05;;
39502;SDS011;26970;49.900;10.774;2023-04-25T07:32:18;8.63;;;5.03;;
39502;SDS011;26970;49.900;10.774;2023-04-25T07:34:44;7.93;;;5.07;;
39502;SDS011;26970;49.900;10.774;2023-04-25T07:37:10;9.05;;;5.05;;
39502;SDS011;26970;49.900;10.774;2023-04-25T07:39:35;8.38;;;4.57;;
39502;SDS011;26970;49.900;10.774;2023-04-25T07:42:02;9.30;;;4.13;;
39502;SDS011;26970;49.900;10.774;2023-04-25T07:44:28;6.85;;;3.95;;
39502;SDS011;26970;49.900;10.774;2023-04-25T07:46:55;6.00;;;3.80;;
39502;SDS011;26970;49.900;10.774;2023-04-25T07:49:21;7.35;;;4.32;;
39502;SDS011;26970;49.900;10.774;2023-04-25T07:51:47;7.43;;;4.00;;
39502;SDS011;26970;49.900;10.774;2023-04-25T07:54:13;9.40;;;4.80;;
39502;SDS011;26970;49.900;10.774;2023-04-25T07:56:40;6.18;;;3.72;;
39502;SDS011;26970;49.900;10.774;2023-04-25T07:59:06;5.43;;;3.20;;
39502;SDS011;26970;49.900;10.774;2023-04-25T08:01:33;8.95;;;3.58;;
39502;SDS011;26970;49.900;10.774;2023-04-25T08:03:59;7.30;;;3.55;;
39502;SDS011;26970;49.900;10.774;2023-04-25T08:06:25;7.90;;;3.42;;
39502;SDS011;26970;49.900;10.774;2023-04-25T08:08:50;7.43;;;3.55;;
39502;SDS011;26970;49.900;10.774;2023-04-25T08:11:16;8.25;;;2.90;;
39502;SDS011;26970;49.900;10.774;2023-04-25T08:13:41;6.28;;;3.00;;
39502;SDS011;26970;49.900;10.774;2023-04-25T08:16:07;6.70;;;2.95;;
39502;SDS011;26970;49.900;10.774;2023-04-25T08:18:33;7.25;;;3.65;;
39502;SDS011;26970;49.900;10.774;2023-04-25T08:20:58;8.05;;;3.10;;
39502;SDS011;26970;49.900;10.774;2023-04-25T08:23:24;6.55;;;3.33;;
39502;SDS011;26970;49.900;10.774;2023-04-25T08:25:50;7.03;;;3.40;;
39502;SDS011;26970;49.900;10.774;2023-04-25T08:28:16;7.28;;;3.47;;
39502;SDS011;26970;49.900;10.774;2023-04-25T08:30:41;5.80;;;3.25;;
39502;SDS011;26970;49.900;10.774;2023-04-25T08:33:07;7.78;;;3.50;;
39502;SDS011;26970;49.900;10.774;2023-04-25T08:35:33;7.03;;;3.10;;
39502;SDS011;26970;49.900;10.774;2023-04-25T08:37:58;6.53;;;3.28;;
39502;SDS011;26970;49.900;10.774;2023-04-25T08:40:24;6.90;;;2.95;;
39502;SDS011;26970;49.900;10.774;2023-04-25T08:42:55;4.57;;;2.90;;
39502;SDS011;26970;49.900;10.774;2023-04-25T08:45:23;7.63;;;2.88;;
39502;SDS011;26970;49.900;10.774;2023-04-25T08:47:50;5.97;;;3.05;;
39502;SDS011;26970;49.900;10.774;2023-04-25T08:50:17;5.97;;;2.92;;
39502;SDS011;26970;49.900;10.774;2023-04-25T08:52:46;6.68;;;3.45;;
39502;SDS011;26970;49.900;10.774;2023-04-25T08:55:13;9.43;;;3.50;;
39502;SDS011;26970;49.900;10.774;2023-04-25T08:57:40;5.22;;;3.42;;
39502;SDS011;26970;49.900;10.774;2023-04-25T09:00:08;7.03;;;3.55;;
39502;SDS011;26970;49.900;10.774;2023-04-25T09:02:38;7.90;;;3.95;;
39502;SDS011;26970;49.900;10.774;2023-04-25T09:05:06;9.60;;;4.20;;
39502;SDS011;26970;49.900;10.774;2023-04-25T09:07:32;5.18;;;3.58;;
39502;SDS011;26970;49.900;10.774;2023-04-25T09:09:58;11.15;;;6.85;;
39502;SDS011;26970;49.900;10.774;2023-04-25T09:12:28;6.88;;;4.40;;
39502;SDS011;26970;49.900;10.774;2023-04-25T09:15:01;8.60;;;3.90;;
39502;SDS011;26970;49.900;10.774;2023-04-25T09:17:27;7.22;;;4.18;;
39502;SDS011;26970;49.900;10.774;2023-04-25T09:19:53;11.30;;;4.32;;
39502;SDS011;26970;49.900;10.774;2023-04-25T09:22:19;8.18;;;4.55;;
39502;SDS011;26970;49.900;10.774;2023-04-25T09:24:47;9.25;;;3.83;;
39502;SDS011;26970;49.900;10.774;2023-04-25T09:27:18;5.80;;;3.88;;
39502;SDS011;26970;49.900;10.774;2023-04-25T09:29:45;9.35;;;3.63;;
39502;SDS011;26970;49.900;10.774;2023-04-25T09:34:43;5.55;;;2.90;;
39502;SDS011;26970;49.900;10.774;2023-04-25T09:37:13;4.35;;;2.70;;
39502;SDS011;26970;49.900;10.774;2023-04-25T09:39:44;7.55;;;3.35;;
39502;SDS011;26970;49.900;10.774;2023-04-25T09:42:11;5.85;;;3.67;;
39502;SDS011;26970;49.900;10.774;2023-04-25T09:44:41;6.38;;;3.35;;
39502;SDS011;26970;49.900;10.774;2023-04-25T09:47:11;6.43;;;2.80;;
39502;SDS011;26970;49.900;10.774;2023-04-25T09:49:39;6.03;;;3.63;;
39502;SDS011;26970;49.900;10.774;2023-04-25T09:52:06;7.25;;;3.50;;
39502;SDS011;26970;49.900;10.774;2023-04-25T09:54:32;5.43;;;2.90;;
39502;SDS011;26970;49.900;10.774;2023-04-25T09:56:57;6.05;;;2.90;;
39502;SDS011;26970;49.900;10.774;2023-04-25T10:02:11;6.43;;;3.00;;
39502;SDS011;26970;49.900;10.774;2023-04-25T10:04:38;4.68;;;2.42;;
39502;SDS011;26970;49.900;10.774;2023-04-25T10:07:07;4.45;;;2.10;;
39502;SDS011;26970;49.900;10.774;2023-04-25T10:09:36;4.95;;;1.90;;
39502;SDS011;26970;49.900;10.774;2023-04-25T10:12:02;3.53;;;2.17;;
39502;SDS011;26970;49.900;10.774;2023-04-25T10:14:31;5.65;;;2.88;;
39502;SDS011;26970;49.900;10.774;2023-04-25T10:16:58;3.53;;;1.83;;
39502;SDS011;26970;49.900;10.774;2023-04-25T10:19:24;6.75;;;2.80;;
39502;SDS011;26970;49.900;10.774;2023-04-25T10:21:55;3.15;;;1.83;;
39502;SDS011;26970;49.900;10.774;2023-04-25T10:24:30;2.80;;;1.85;;
39502;SDS011;26970;49.900;10.774;2023-04-25T10:26:57;4.07;;;2.03;;
39502;SDS011;26970;49.900;10.774;2023-04-25T10:29:26;2.88;;;1.77;;
39502;SDS011;26970;49.900;10.774;2023-04-25T10:31:52;3.30;;;1.80;;
39502;SDS011;26970;49.900;10.774;2023-04-25T10:34:18;3.22;;;1.80;;
39502;SDS011;26970;49.900;10.774;2023-04-25T10:36:49;3.47;;;2.20;;
39502;SDS011;26970;49.900;10.774;2023-04-25T10:39:25;4.60;;;1.90;;
39502;SDS011;26970;49.900;10.774;2023-04-25T10:41:53;2.83;;;1.80;;
39502;SDS011;26970;49.900;10.774;2023-04-25T10:44:21;2.88;;;1.77;;
39502;SDS011;26970;49.900;10.774;2023-04-25T10:46:46;1.80;;;1.50;;
39502;SDS011;26970;49.900;10.774;2023-04-25T10:49:33;4.05;;;1.80;;
39502;SDS011;26970;49.900;10.774;2023-04-25T10:52:16;2.22;;;1.70;;
39502;SDS011;26970;49.900;10.774;2023-04-25T10:54:52;1.88;;;1.58;;
39502;SDS011;26970;49.900;10.774;2023-04-25T10:59:53;7.72;;;2.28;;
39502;SDS011;26970;49.900;10.774;2023-04-25T11:02:19;3.95;;;1.95;;
39502;SDS011;26970;49.900;10.774;2023-04-25T11:04:44;2.60;;;1.92;;
39502;SDS011;26970;49.900;10.774;2023-04-25T11:07:13;2.92;;;1.77;;
39502;SDS011;26970;49.900;10.774;2023-04-25T11:10:04;4.70;;;2.03;;
39502;SDS011;26970;49.900;10.774;2023-04-25T11:12:31;4.07;;;1.75;;
39502;SDS011;26970;49.900;10.774;2023-04-25T11:15:03;3.45;;;2.05;;
39502;SDS011;26970;49.900;10.774;2023-04-25T11:17:30;3.28;;;2.20;;
39502;SDS011;26970;49.900;10.774;2023-04-25T11:19:56;3.60;;;2.13;;
39502;SDS011;26970;49.900;10.774;2023-04-25T11:22:22;3.35;;;2.20;;
39502;SDS011;26970;49.900;10.774;2023-04-25T11:24:48;3.78;;;1.80;;
39502;SDS011;26970;49.900;10.774;2023-04-25T11:27:14;3.08;;;1.95;;
39502;SDS011;26970;49.900;10.774;2023-04-25T11:29:40;2.70;;;1.80;;
39502;SDS011;26970;49.900;10.774;2023-04-25T11:32:06;2.95;;;2.05;;
39502;SDS011;26970;49.900;10.774;2023-04-25T11:34:32;3.05;;;2.20;;
39502;SDS011;26970;49.900;10.774;2023-04-25T11:36:58;4.10;;;2.08;;
39502;SDS011;26970;49.900;10.774;2023-04-25T11:39:25;3.80;;;2.22;;
39502;SDS011;26970;49.900;10.774;2023-04-25T11:41:52;5.15;;;2.13;;
39502;SDS011;26970;49.900;10.774;2023-04-25T11:44:19;5.05;;;2.22;;
39502;SDS011;26970;49.900;10.774;2023-04-25T11:46:45;3.40;;;2.13;;
39502;SDS011;26970;49.900;10.774;2023-04-25T11:49:12;4.55;;;2.38;;
39502;SDS011;26970;49.900;10.774;2023-04-25T11:51:38;4.35;;;2.30;;
39502;SDS011;26970;49.900;10.774;2023-04-25T11:54:08;3.58;;;2.50;;
39502;SDS011;26970;49.900;10.774;2023-04-25T11:56:33;5.85;;;2.80;;
39502;SDS011;26970;49.900;10.774;2023-04-25T11:59:03;5.22;;;2.63;;
39502;SDS011;26970;49.900;10.774;2023-04-25T12:03:57;4.50;;;2.40;;
39502;SDS011;26970;49.900;10.774;2023-04-25T12:06:27;3.65;;;2.20;;
39502;SDS011;26970;49.900;10.774;2023-04-25T12:09:27;4.88;;;2.53;;
39502;SDS011;26970;49.900;10.774;2023-04-25T12:11:53;4.45;;;2.70;;
39502;SDS011;26970;49.900;10.774;2023-04-25T12:16:49;4.50;;;2.60;;
39502;SDS011;26970;49.900;10.774;2023-04-25T12:19:16;4.22;;;2.33;;
39502;SDS011;26970;49.900;10.774;2023-04-25T12:21:43;5.05;;;2.45;;
39502;SDS011;26970;49.900;10.774;2023-04-25T12:24:13;5.32;;;2.45;;
39502;SDS011;26970;49.900;10.774;2023-04-25T12:29:30;3.13;;;2.28;;
39502;SDS011;26970;49.900;10.774;2023-04-25T12:31:57;3.85;;;2.50;;
39502;SDS011;26970;49.900;10.774;2023-04-25T12:34:24;5.50;;;3.28;;
39502;SDS011;26970;49.900;10.774;2023-04-25T12:36:50;6.57;;;2.55;;
39502;SDS011;26970;49.900;10.774;2023-04-25T12:39:25;4.80;;;2.42;;
39502;SDS011;26970;49.900;10.774;2023-04-25T12:41:51;4.93;;;2.47;;
39502;SDS011;26970;49.900;10.774;2023-04-25T12:44:18;3.78;;;2.35;;
39502;SDS011;26970;49.900;10.774;2023-04-25T12:46:45;4.28;;;2.30;;
39502;SDS011;26970;49.900;10.774;2023-04-25T12:49:10;3.90;;;2.50;;
39502;SDS011;26970;49.900;10.774;2023-04-25T12:51:36;4.63;;;2.38;;
39502;SDS011;26970;49.900;10.774;2023-04-25T12:54:03;4.55;;;2.45;;
39502;SDS011;26970;49.900;10.774;2023-04-25T12:56:29;5.07;;;2.30;;
39502;SDS011;26970;49.900;10.774;2023-04-25T12:58:56;4.35;;;2.80;;
39502;SDS011;26970;49.900;10.774;2023-04-25T13:01:22;4.32;;;2.50;;
39502;SDS011;26970;49.900;10.774;2023-04-25T13:03:48;4.15;;;2.40;;
39502;SDS011;26970;49.900;10.774;2023-04-25T13:06:14;6.07;;;2.70;;
39502;SDS011;26970;49.900;10.774;2023-04-25T13:08:40;5.90;;;2.50;;
39502;SDS011;26970;49.900;10.774;2023-04-25T13:11:06;5.20;;;2.60;;
39502;SDS011;26970;49.900;10.774;2023-04-25T13:13:32;5.22;;;2.80;;
39502;SDS011;26970;49.900;10.774;2023-04-25T13:15:59;6.03;;;2.50;;
39502;SDS011;26970;49.900;10.774;2023-04-25T13:18:26;3.97;;;2.40;;
39502;SDS011;26970;49.900;10.774;2023-04-25T13:20:52;3.88;;;2.50;;
39502;SDS011;26970;49.900;10.774;2023-04-25T13:23:18;3.88;;;2.45;;
39502;SDS011;26970;49.900;10.774;2023-04-25T13:25:45;4.50;;;2.90;;
39502;SDS011;26970;49.900;10.774;2023-04-25T13:28:11;4.93;;;3.00;;
39502;SDS011;26970;49.900;10.774;2023-04-25T13:30:37;5.75;;;2.90;;
39502;SDS011;26970;49.900;10.774;2023-04-25T13:33:03;4.43;;;2.50;;
39502;SDS011;26970;49.900;10.774;2023-04-25T13:35:29;4.07;;;2.28;;
39502;SDS011;26970;49.900;10.774;2023-04-25T13:37:56;3.63;;;2.22;;
39502;SDS011;26970;49.900;10.774;2023-04-25T13:40:21;4.40;;;2.50;;
39502;SDS011;26970;49.900;10.774;2023-04-25T13:42:47;4.13;;;2.40;;
39502;SDS011;26970;49.900;10.774;2023-04-25T13:45:13;4.57;;;2.47;;
39502;SDS011;26970;49.900;10.774;2023-04-25T13:47:39;3.67;;;2.30;;
39502;SDS011;26970;49.900;10.774;2023-04-25T13:50:04;5.45;;;2.85;;
39502;SDS011;26970;49.900;10.774;2023-04-25T13:52:31;3.95;;;2.35;;
39502;SDS011;26970;49.900;10.774;2023-04-25T13:54:56;4.28;;;2.70;;
39502;SDS011;26970;49.900;10.774;2023-04-25T13:57:22;4.90;;;2.60;;
39502;SDS011;26970;49.900;10.774;2023-04-25T13:59:48;4.40;;;2.40;;
39502;SDS011;26970;49.900;10.774;2023-04-25T14:02:14;4.43;;;2.50;;
39502;SDS011;26970;49.900;10.774;2023-04-25T14:04:40;8.10;;;2.55;;
39502;SDS011;26970;49.900;10.774;2023-04-25T14:07:05;7.85;;;2.80;;
39502;SDS011;26970;49.900;10.774;2023-04-25T14:09:31;4.03;;;2.55;;
39502;SDS011;26970;49.900;10.774;2023-04-25T14:11:57;4.60;;;2.58;;
39502;SDS011;26970;49.900;10.774;2023-04-25T14:14:23;6.35;;;3.55;;
39502;SDS011;26970;49.900;10.774;2023-04-25T14:16:49;4.45;;;2.53;;
39502;SDS011;26970;49.900;10.774;2023-04-25T14:19:15;5.78;;;2.55;;
39502;SDS011;26970;49.900;10.774;2023-04-25T14:21:41;5.63;;;2.28;;
39502;SDS011;26970;49.900;10.774;2023-04-25T14:24:08;5.68;;;2.22;;
39502;SDS011;26970;49.900;10.774;2023-04-25T14:26:34;4.90;;;2.50;;
39502;SDS011;26970;49.900;10.774;2023-04-25T14:29:03;4.40;;;2.72;;
39502;SDS011;26970;49.900;10.774;2023-04-25T14:31:30;5.20;;;2.58;;
39502;SDS011;26970;49.900;10.774;2023-04-25T14:33:56;4.57;;;2.55;;
39502;SDS011;26970;49.900;10.774;2023-04-25T14:36:21;5.13;;;2.67;;
39502;SDS011;26970;49.900;10.774;2023-04-25T14:38:47;4.45;;;2.95;;
39502;SDS011;26970;49.900;10.774;2023-04-25T14:41:13;6.18;;;2.80;;
39502;SDS011;26970;49.900;10.774;2023-04-25T14:43:38;6.70;;;2.75;;